Englewood, Indiana
Current Conditions -  °F | °C
As of 5:10 AM on Thursday 23 Oct 2014 (Local Time) from KBMG Reporting Station
Clear Clear  
Wind Chill: 36°   Ceiling: Unl
Heat Index: 36°   Visibility: 8mi
Dew Point: 34°   Wind: 3mph
Humidity: 93%   Direction: 120°ESE
Pressure: 30.25"   Gusts: NA
Location:  38.8737°N, 86.4563°W
Report Text: KBMG 230910Z AUTO 12003KT 8SM CLR 02/01 A3025 RMK AO2 T00220011
Loading
Personal Weather Stations






























Interactive Weather Map
Tropical Storm Tracking
New forecast layout! Learn more

10-Day Weather Forecast

Advertisements
Track Severe Weather on mobile